Time;durP1;ratioP1;P1;durP2;ratioP2;P2;SDS_P1;SDS_P2;PMS_P1;PMS_P2;Temp;Humidity;BMP_temperature;BMP_pressure;BME280_temperature;BME280_humidity;BME280_pressure;Samples;Min_cycle;Max_cycle;Signal;HPM_P1;HPM_P2
2022/10/03 00:01:18;;;;;;;;;;;;;;;;;;5083904;28;803;-65
2022/10/03 00:03:59;;;;;;;;;;;;;;;;;;5083847;28;807;-65
2022/10/03 00:06:35;;;;;;;;;;;;;;;;;;5083364;28;1294;-65
2022/10/03 00:09:09;;;;;;;;;;;;;;;;;;5083665;28;981;-65
2022/10/03 00:11:54;;;;;;;;;;;;;;;;;;5084060;28;932;-65
2022/10/03 00:14:25;;;;;;;;;;;;;;;;;;5083482;28;886;-65
2022/10/03 00:16:51;;;;;;;;;;;;;;;;;;5083410;28;1219;-65
2022/10/03 00:19:28;;;;;;;;;;;;;;;;;;5083457;28;1947;-65
2022/10/03 00:22:06;;;;;;;;;;;;;;;;;;5083552;28;779;-64
2022/10/03 00:24:58;;;;;;;;;;;;;;;;;;5083136;28;873;-64
2022/10/03 00:27:47;;;;;;;;;;;;;;;;;;5083216;28;1207;-65
2022/10/03 00:30:22;;;;;;;;;;;;;;;;;;5083231;28;894;-64
2022/10/03 00:32:47;;;;;;;;;;;;;;;;;;5065443;28;973;-65
2022/10/03 00:35:31;;;;;;;;;;;;;;;;;;5082716;28;954;-65
2022/10/03 00:37:56;;;;;;;;;;;;;;;;;;5078453;22;3789;-68
2022/10/03 00:40:32;;;;;;;;;;;;;;;;;;5063266;28;1905;-71
2022/10/03 00:43:16;;;;;;;;;;;;;;;;;;5062322;28;870;-71
2022/10/03 00:45:50;;;;;;;;;;;;;;;;;;5062479;28;1246;-71
2022/10/03 00:48:21;;;;;;;;;;;;;;;;;;5062996;28;1029;-71
2022/10/03 00:50:46;;;;;;;;;;;;;;;;;;5062858;28;988;-70
2022/10/03 00:53:12;;;;;;;;;;;;;;;;;;5062856;28;842;-71
2022/10/03 00:55:48;;;;;;;;;;;;;;;;;;5062405;28;1198;-71
2022/10/03 00:58:26;;;;;;;;;;;;;;;;;;5062993;28;901;-71
2022/10/03 01:00:53;;;;;;;;;;;;;;;;;;5062600;28;1965;-70
2022/10/03 01:03:37;;;;;;;;;;;;;;;;;;5062897;28;957;-71
2022/10/03 01:06:18;;;;;;;;;;;;;;;;;;5062117;28;1152;-70
2022/10/03 01:09:06;;;;;;;;;;;;;;;;;;5062766;28;807;-70
2022/10/03 01:11:50;;;;;;;;;;;;;;;;;;5062733;28;878;-71
2022/10/03 01:14:18;;;;;;;;;;;;;;;;;;5062596;28;969;-70
2022/10/03 01:16:57;;;;;;;;;;;;;;;;;;5062176;28;1235;-70
2022/10/03 01:19:22;;;;;;;;;;;;;;;;;;5062831;28;1973;-71
2022/10/03 01:21:53;;;;;;;;;;;;;;;;;;5062369;28;922;-70
2022/10/03 01:24:44;;;;;;;;;;;;;;;;;;5062661;28;905;-70
2022/10/03 01:27:16;;;;;;;;;;;;;;;;;;5041425;28;1156;-70
2022/10/03 01:32:37;;;;;;;;;;;;;;;;;;5062440;28;621;-71
2022/10/03 01:35:06;;;;;;;;;;;;;;;;;;5061853;28;831;-71
2022/10/03 01:37:31;;;;;;;;;;;;;;;;;;5062220;28;1195;-70
2022/10/03 01:40:12;;;;;;;;;;;;;;;;;;5062076;28;1898;-71
2022/10/03 01:42:49;;;;;;;;;;;;;;;;;;5062381;28;898;-71
2022/10/03 01:45:27;;;;;;;;;;;;;;;;;;5061645;28;966;-70
2022/10/03 01:47:56;;;;;;;;;;;;;;;;;;5062153;28;1163;-70
2022/10/03 01:50:35;;;;;;;;;;;;;;;;;;5062121;28;811;-70
2022/10/03 01:53:18;;;;;;;;;;;;;;;;;;5044312;28;827;-70
2022/10/03 01:56:03;;;;;;;;;;;;;;;;;;5061428;28;1241;-70
2022/10/03 01:58:40;;;;;;;;;;;;;;;;;;5062020;28;882;-70
2022/10/03 02:01:09;;;;;;;;;;;;;;;;;;5061657;28;886;-70
2022/10/03 02:03:45;;;;;;;;;;;;;;;;;;5061944;28;827;-71
2022/10/03 02:06:31;;;;;;;;;;;;;;;;;;5060280;28;1302;-70
2022/10/03 02:09:22;;;;;;;;;;;;;;;;;;5061918;28;1040;-70
2022/10/03 02:11:48;;;;;;;;;;;;;;;;;;5057454;28;1607;-70
2022/10/03 02:14:26;;;;;;;;;;;;;;;;;;5061923;28;882;-71
2022/10/03 02:17:23;;;;;;;;;;;;;;;;;;5061464;28;1163;-70
2022/10/03 02:20:12;;;;;;;;;;;;;;;;;;5017047;28;1970;-71
2022/10/03 02:22:45;;;;;;;;;;;;;;;;;;5061437;28;1115;-70
2022/10/03 02:25:17;;;;;;;;;;;;;;;;;;5061360;28;823;-70
2022/10/03 02:28:02;;;;;;;;;;;;;;;;;;5061363;28;1258;-71
2022/10/03 02:30:46;;;;;;;;;;;;;;;;;;5061506;28;982;-71
2022/10/03 02:33:31;;;;;;;;;;;;;;;;;;5061411;28;925;-70
2022/10/03 02:36:06;;;;;;;;;;;;;;;;;;5060968;28;1270;-70
2022/10/03 02:38:43;;;;;;;;;;;;;;;;;;5061270;28;1898;-70
2022/10/03 02:41:12;;;;;;;;;;;;;;;;;;5061342;28;1001;-70
2022/10/03 02:43:49;;;;;;;;;;;;;;;;;;5061168;28;932;-71
2022/10/03 02:46:25;;;;;;;;;;;;;;;;;;5060785;28;1255;-70
2022/10/03 02:49:09;;;;;;;;;;;;;;;;;;5061110;28;802;-70
2022/10/03 02:51:53;;;;;;;;;;;;;;;;;;5061204;28;921;-71
2022/10/03 02:54:25;;;;;;;;;;;;;;;;;;5061104;28;1028;-71
2022/10/03 02:57:09;;;;;;;;;;;;;;;;;;5060981;28;1282;-70
2022/10/03 02:59:37;;;;;;;;;;;;;;;;;;5061186;28;1897;-70
2022/10/03 03:02:21;;;;;;;;;;;;;;;;;;5060996;28;1016;-70
2022/10/03 03:05:04;;;;;;;;;;;;;;;;;;5060555;28;1041;-71
2022/10/03 03:07:35;;;;;;;;;;;;;;;;;;5067458;28;1167;-71
2022/10/03 03:10:19;;;;;;;;;;;;;;;;;;5067363;28;944;-71
2022/10/03 03:12:44;;;;;;;;;;;;;;;;;;5067681;28;862;-70
2022/10/03 03:15:28;;;;;;;;;;;;;;;;;;5067168;28;881;-70
2022/10/03 03:18:05;;;;;;;;;;;;;;;;;;5049610;28;1322;-70
2022/10/03 03:20:30;;;;;;;;;;;;;;;;;;5067403;28;1894;-70
2022/10/03 03:23:09;;;;;;;;;;;;;;;;;;5067836;28;871;-71
2022/10/03 03:25:37;;;;;;;;;;;;;;;;;;5067074;28;961;-70
2022/10/03 03:28:02;;;;;;;;;;;;;;;;;;5067700;28;811;-71
2022/10/03 03:30:45;;;;;;;;;;;;;;;;;;5067249;28;886;-71
2022/10/03 03:33:22;;;;;;;;;;;;;;;;;;5067302;28;1008;-71
2022/10/03 03:35:50;;;;;;;;;;;;;;;;;;5066860;28;1278;-71
2022/10/03 03:38:34;;;;;;;;;;;;;;;;;;5065952;28;897;-71
2022/10/03 03:41:02;;;;;;;;;;;;;;;;;;5066066;28;1060;-70
2022/10/03 03:43:50;;;;;;;;;;;;;;;;;;5066039;28;850;-71
2022/10/03 03:46:17;;;;;;;;;;;;;;;;;;5065717;28;1305;-71
2022/10/03 03:48:48;;;;;;;;;;;;;;;;;;5066011;28;877;-71
2022/10/03 03:51:21;;;;;;;;;;;;;;;;;;5066039;28;870;-71
2022/10/03 03:53:52;;;;;;;;;;;;;;;;;;5065971;28;834;-70
2022/10/03 03:56:31;;;;;;;;;;;;;;;;;;5065532;28;1238;-71
2022/10/03 03:58:59;;;;;;;;;;;;;;;;;;5065835;28;1977;-71
2022/10/03 04:01:35;;;;;;;;;;;;;;;;;;5065700;28;1020;-70
2022/10/03 04:04:19;;;;;;;;;;;;;;;;;;5065752;28;866;-71
2022/10/03 04:06:56;;;;;;;;;;;;;;;;;;5047436;28;1541;-71
2022/10/03 04:09:30;;;;;;;;;;;;;;;;;;5065818;28;866;-71
2022/10/03 04:12:07;;;;;;;;;;;;;;;;;;5065935;28;960;-71
2022/10/03 04:14:41;;;;;;;;;;;;;;;;;;5065141;28;839;-71
2022/10/03 04:20:19;;;;;;;;;;;;;;;;;;5062561;28;1972;-71
2022/10/03 04:23:03;;;;;;;;;;;;;;;;;;5062507;28;835;-71
2022/10/03 04:25:37;;;;;;;;;;;;;;;;;;5062030;28;1052;-71
2022/10/03 04:28:02;;;;;;;;;;;;;;;;;;5062327;28;815;-71
2022/10/03 04:30:34;;;;;;;;;;;;;;;;;;5062154;28;807;-71
2022/10/03 04:33:09;;;;;;;;;;;;;;;;;;5062318;28;826;-68
2022/10/03 04:35:37;;;;;;;;;;;;;;;;;;5062054;28;821;-68
2022/10/03 04:38:04;;;;;;;;;;;;;;;;;;5026996;28;1028274;-68
2022/10/03 04:40:39;;;;;;;;;;;;;;;;;;5063040;28;1973;-68
2022/10/03 04:43:27;;;;;;;;;;;;;;;;;;5063329;28;1043;-68
2022/10/03 04:46:11;;;;;;;;;;;;;;;;;;5024850;28;1144;-68
2022/10/03 04:48:45;;;;;;;;;;;;;;;;;;5063233;28;875;-68
2022/10/03 04:51:11;;;;;;;;;;;;;;;;;;5063065;28;1016;-68
2022/10/03 04:53:55;;;;;;;;;;;;;;;;;;5063112;28;842;-68
2022/10/03 04:56:32;;;;;;;;;;;;;;;;;;5062613;28;1136;-71
2022/10/03 04:59:21;;;;;;;;;;;;;;;;;;5063235;28;1894;-71
2022/10/03 05:02:01;;;;;;;;;;;;;;;;;;5062861;28;946;-70
2022/10/03 05:04:32;;;;;;;;;;;;;;;;;;5062703;28;893;-69
2022/10/03 05:07:14;;;;;;;;;;;;;;;;;;5062424;28;1262;-70
2022/10/03 05:09:53;;;;;;;;;;;;;;;;;;5062790;28;1270;-70
2022/10/03 05:12:34;;;;;;;;;;;;;;;;;;5062795;28;842;-70
2022/10/03 05:15:02;;;;;;;;;;;;;;;;;;5062666;28;917;-70
2022/10/03 05:17:33;;;;;;;;;;;;;;;;;;5062384;28;1250;-70
2022/10/03 05:20:17;;;;;;;;;;;;;;;;;;5062928;28;1956;-69
2022/10/03 05:22:51;;;;;;;;;;;;;;;;;;5062509;28;1093;-70
2022/10/03 05:25:21;;;;;;;;;;;;;;;;;;5062249;28;906;-70
2022/10/03 05:27:50;;;;;;;;;;;;;;;;;;5062315;28;1270;-69
2022/10/03 05:30:18;;;;;;;;;;;;;;;;;;5062149;28;814;-69
2022/10/03 05:32:50;;;;;;;;;;;;;;;;;;5062298;28;791;-70
2022/10/03 05:35:34;;;;;;;;;;;;;;;;;;5062120;28;1079;-69
2022/10/03 05:38:14;;;;;;;;;;;;;;;;;;5061918;28;1274;-70
2022/10/03 05:41:01;;;;;;;;;;;;;;;;;;5062468;28;1890;-69
2022/10/03 05:43:43;;;;;;;;;;;;;;;;;;5062145;28;850;-69
2022/10/03 05:46:28;;;;;;;;;;;;;;;;;;5061769;28;1307;-69
2022/10/03 05:48:57;;;;;;;;;;;;;;;;;;5045204;28;1197;-69
2022/10/03 05:51:40;;;;;;;;;;;;;;;;;;5042021;28;1056;-69
2022/10/03 05:54:23;;;;;;;;;;;;;;;;;;5042124;28;866;-69
2022/10/03 05:57:07;;;;;;;;;;;;;;;;;;5041936;28;1191;-69
2022/10/03 05:59:36;;;;;;;;;;;;;;;;;;5041900;28;1893;-69
2022/10/03 06:02:19;;;;;;;;;;;;;;;;;;5041968;28;874;-69
2022/10/03 06:05:03;;;;;;;;;;;;;;;;;;5041705;28;953;-69
2022/10/03 06:07:30;;;;;;;;;;;;;;;;;;5041670;28;1270;-69
2022/10/03 06:10:14;;;;;;;;;;;;;;;;;;5042010;28;1053;-69
2022/10/03 06:12:45;;;;;;;;;;;;;;;;;;5041814;28;839;-69
2022/10/03 06:15:42;;;;;;;;;;;;;;;;;;5041510;28;945;-69
2022/10/03 06:18:10;;;;;;;;;;;;;;;;;;4971873;28;1149;-69
2022/10/03 06:20:44;;;;;;;;;;;;;;;;;;5041802;28;1893;-69
2022/10/03 06:23:10;;;;;;;;;;;;;;;;;;5041909;28;823;-69
2022/10/03 06:25:48;;;;;;;;;;;;;;;;;;5041589;28;890;-68
2022/10/03 06:28:34;;;;;;;;;;;;;;;;;;5041604;28;889;-69
2022/10/03 06:31:18;;;;;;;;;;;;;;;;;;5041500;28;914;-69
2022/10/03 06:33:52;;;;;;;;;;;;;;;;;;5041450;28;981;-69
2022/10/03 06:36:26;;;;;;;;;;;;;;;;;;5054069;22;3652;-78
2022/10/03 06:39:22;;;;;;;;;;;;;;;;;;5041311;28;1967;-78
2022/10/03 06:42:06;;;;;;;;;;;;;;;;;;5040645;28;850;-78
2022/10/03 06:44:49;;;;;;;;;;;;;;;;;;5041191;28;815;-79
2022/10/03 06:47:23;;;;;;;;;;;;;;;;;;5030364;28;1228;-78
2022/10/03 06:49:48;;;;;;;;;;;;;;;;;;5021646;28;862;-78
2022/10/03 06:52:28;;;;;;;;;;;;;;;;;;5021529;28;1051;-78
2022/10/03 06:55:03;;;;;;;;;;;;;;;;;;5021399;28;1005;-78
2022/10/03 06:57:28;;;;;;;;;;;;;;;;;;5021337;28;1263;-78
2022/10/03 07:00:00;;;;;;;;;;;;;;;;;;5021193;28;1964;-78
2022/10/03 07:02:49;;;;;;;;;;;;;;;;;;5021528;28;830;-78
2022/10/03 07:05:35;;;;;;;;;;;;;;;;;;5021272;28;1033;-78
2022/10/03 07:08:01;;;;;;;;;;;;;;;;;;5021151;28;1227;-78
2022/10/03 07:10:27;;;;;;;;;;;;;;;;;;5021422;28;826;-78
2022/10/03 07:12:55;;;;;;;;;;;;;;;;;;5021140;28;1045;-78
2022/10/03 07:15:23;;;;;;;;;;;;;;;;;;5020938;28;807;-79
2022/10/03 07:17:48;;;;;;;;;;;;;;;;;;5020886;28;1176;-79
2022/10/03 07:20:13;;;;;;;;;;;;;;;;;;5019383;28;1871;-79
2022/10/03 07:22:44;;;;;;;;;;;;;;;;;;5021285;28;804;-78
2022/10/03 07:25:12;;;;;;;;;;;;;;;;;;5020755;28;1048;-78
2022/10/03 07:27:43;;;;;;;;;;;;;;;;;;5020955;28;1149;-78
2022/10/03 07:30:14;;;;;;;;;;;;;;;;;;5021322;28;760;-78
2022/10/03 07:32:43;;;;;;;;;;;;;;;;;;5021024;28;847;-78
2022/10/03 07:38:56;;;;;;;;;;;;;;;;;;5020504;28;907;-78
2022/10/03 07:38:59;;;;;;;;;;;;;;;;;;5020159;28;1223;-78
2022/10/03 07:41:39;;;;;;;;;;;;;;;;;;5020702;28;878;-78
2022/10/03 07:44:16;;;;;;;;;;;;;;;;;;5020798;28;772;-79
2022/10/03 07:46:41;;;;;;;;;;;;;;;;;;5002763;28;1241;-79
2022/10/03 07:49:18;;;;;;;;;;;;;;;;;;5020602;28;803;-79
2022/10/03 07:52:03;;;;;;;;;;;;;;;;;;5021464;28;949;-79
2022/10/03 07:54:52;;;;;;;;;;;;;;;;;;5023979;28;1045;-79
2022/10/03 07:57:23;;;;;;;;;;;;;;;;;;5024929;28;1180;-79
2022/10/03 08:00:05;;;;;;;;;;;;;;;;;;5025101;28;1911;-79
2022/10/03 08:02:39;;;;;;;;;;;;;;;;;;5024536;28;837;-79
2022/10/03 08:05:05;;;;;;;;;;;;;;;;;;5023687;28;803;-79
2022/10/03 08:07:33;;;;;;;;;;;;;;;;;;5023925;28;1223;-80
2022/10/03 08:10:17;;;;;;;;;;;;;;;;;;5023891;28;866;-80
2022/10/03 08:13:01;;;;;;;;;;;;;;;;;;5024026;28;1216;-80
2022/10/03 08:15:26;;;;;;;;;;;;;;;;;;5023685;28;926;-80
2022/10/03 08:18:05;;;;;;;;;;;;;;;;;;5023730;28;1105;-80
2022/10/03 08:20:34;;;;;;;;;;;;;;;;;;5023458;28;1902;-80
2022/10/03 08:23:02;;;;;;;;;;;;;;;;;;5024046;28;851;-79
2022/10/03 08:25:30;;;;;;;;;;;;;;;;;;5023531;28;847;-79
2022/10/03 08:28:03;;;;;;;;;;;;;;;;;;5023760;28;1227;-78
2022/10/03 08:30:43;;;;;;;;;;;;;;;;;;5005885;28;1635;-77
2022/10/03 08:33:20;;;;;;;;;;;;;;;;;;5023628;28;838;-78
2022/10/03 08:35:51;;;;;;;;;;;;;;;;;;5023152;28;890;-77
2022/10/03 08:38:35;;;;;;;;;;;;;;;;;;5023348;28;1227;-78
2022/10/03 08:41:19;;;;;;;;;;;;;;;;;;5023140;28;1910;-77
2022/10/03 08:43:50;;;;;;;;;;;;;;;;;;5023439;28;850;-78
2022/10/03 08:46:18;;;;;;;;;;;;;;;;;;5022995;28;1212;-77
2022/10/03 08:48:43;;;;;;;;;;;;;;;;;;5023236;28;1060;-76
2022/10/03 08:51:27;;;;;;;;;;;;;;;;;;5023355;28;873;-78
2022/10/03 08:53:55;;;;;;;;;;;;;;;;;;5023078;28;923;-77
2022/10/03 08:56:32;;;;;;;;;;;;;;;;;;5022739;28;1247;-77
2022/10/03 08:59:16;;;;;;;;;;;;;;;;;;5023289;28;1965;-78
2022/10/03 09:01:59;;;;;;;;;;;;;;;;;;5022974;28;989;-80
2022/10/03 09:04:37;;;;;;;;;;;;;;;;;;5022181;28;986;-78
2022/10/03 09:07:20;;;;;;;;;;;;;;;;;;5022815;28;1274;-78
2022/10/03 09:09:45;;;;;;;;;;;;;;;;;;5022992;28;1005;-78
2022/10/03 09:12:28;;;;;;;;;;;;;;;;;;5022707;28;807;-78
2022/10/03 09:15:06;;;;;;;;;;;;;;;;;;5022804;28;830;-80
2022/10/03 09:17:48;;;;;;;;;;;;;;;;;;5022893;28;1173;-78
2022/10/03 09:20:14;;;;;;;;;;;;;;;;;;5022739;28;1906;-78
2022/10/03 09:22:45;;;;;;;;;;;;;;;;;;5022560;28;839;-78
2022/10/03 09:25:13;;;;;;;;;;;;;;;;;;5022409;28;985;-78
2022/10/03 09:27:48;;;;;;;;;;;;;;;;;;5022621;28;1161;-78
2022/10/03 09:30:19;;;;;;;;;;;;;;;;;;5022714;28;890;-78
2022/10/03 09:32:57;;;;;;;;;;;;;;;;;;5022545;28;788;-77
2022/10/03 09:35:44;;;;;;;;;;;;;;;;;;5022255;28;1010;-77
2022/10/03 09:38:28;;;;;;;;;;;;;;;;;;5022491;28;1278;-77
2022/10/03 09:41:10;;;;;;;;;;;;;;;;;;5022291;28;1894;-78
2022/10/03 09:43:41;;;;;;;;;;;;;;;;;;5022304;28;831;-77
2022/10/03 09:46:12;;;;;;;;;;;;;;;;;;5022382;28;1176;-77
2022/10/03 09:48:40;;;;;;;;;;;;;;;;;;5022311;28;1044;-78
2022/10/03 09:51:20;;;;;;;;;;;;;;;;;;5022297;28;942;-78
2022/10/03 09:54:06;;;;;;;;;;;;;;;;;;5022197;28;847;-79
2022/10/03 09:56:50;;;;;;;;;;;;;;;;;;5022227;28;1196;-78
2022/10/03 09:59:15;;;;;;;;;;;;;;;;;;5022050;28;1898;-78
2022/10/03 10:01:43;;;;;;;;;;;;;;;;;;5022464;28;831;-78
2022/10/03 10:04:27;;;;;;;;;;;;;;;;;;5022022;28;990;-78
2022/10/03 10:07:11;;;;;;;;;;;;;;;;;;5021863;28;1187;-77
2022/10/03 10:09:39;;;;;;;;;;;;;;;;;;5021894;28;993;-77
2022/10/03 10:12:10;;;;;;;;;;;;;;;;;;5022115;28;834;-77
2022/10/03 10:15:00;;;;;;;;;;;;;;;;;;5021374;28;854;-78
2022/10/03 10:17:41;;;;;;;;;;;;;;;;;;5021859;28;1184;-77
2022/10/03 10:20:27;;;;;;;;;;;;;;;;;;5021757;28;1902;-77
2022/10/03 10:23:03;;;;;;;;;;;;;;;;;;4991093;28;1181;-77
2022/10/03 10:25:37;;;;;;;;;;;;;;;;;;5021640;28;835;-78
2022/10/03 10:28:11;;;;;;;;;;;;;;;;;;5021684;28;1212;-76
2022/10/03 10:30:47;;;;;;;;;;;;;;;;;;5021886;28;1009;-76
2022/10/03 10:33:47;;;;;;;;;;;;;;;;;;5021725;28;973;-76
2022/10/03 10:36:31;;;;;;;;;;;;;;;;;;5021327;28;1208;-76
2022/10/03 10:39:09;;;;;;;;;;;;;;;;;;5003897;28;1895;-77
2022/10/03 10:41:34;;;;;;;;;;;;;;;;;;5021479;28;1068;-77
2022/10/03 10:44:18;;;;;;;;;;;;;;;;;;5021381;28;870;-77
2022/10/03 10:46:43;;;;;;;;;;;;;;;;;;5021343;28;1192;-76
2022/10/03 10:49:27;;;;;;;;;;;;;;;;;;5021394;28;977;-76
2022/10/03 10:52:10;;;;;;;;;;;;;;;;;;5021564;28;985;-76
2022/10/03 10:55:04;;;;;;;;;;;;;;;;;;5021060;28;866;-77
2022/10/03 10:57:39;;;;;;;;;;;;;;;;;;4967636;28;1312;-76
2022/10/03 11:00:22;;;;;;;;;;;;;;;;;;5021012;28;1894;-76
2022/10/03 11:03:19;;;;;;;;;;;;;;;;;;5021320;28;915;-76
2022/10/03 11:06:03;;;;;;;;;;;;;;;;;;5020888;28;1191;-76
2022/10/03 11:08:50;;;;;;;;;;;;;;;;;;5021310;28;823;-77
2022/10/03 11:11:36;;;;;;;;;;;;;;;;;;5021082;28;847;-76
2022/10/03 11:14:07;;;;;;;;;;;;;;;;;;5021065;28;978;-76
2022/10/03 11:16:53;;;;;;;;;;;;;;;;;;5020834;28;1250;-76
2022/10/03 11:19:30;;;;;;;;;;;;;;;;;;5010665;28;1890;-76
2022/10/03 11:22:15;;;;;;;;;;;;;;;;;;5021051;28;815;-76
2022/10/03 11:25:01;;;;;;;;;;;;;;;;;;5020734;28;847;-76
2022/10/03 11:27:40;;;;;;;;;;;;;;;;;;5022783;28;1180;-77
2022/10/03 11:30:24;;;;;;;;;;;;;;;;;;5024558;28;1061;-76
2022/10/03 11:32:49;;;;;;;;;;;;;;;;;;5024750;28;926;-76
2022/10/03 11:35:37;;;;;;;;;;;;;;;;;;5024072;28;981;-76
2022/10/03 11:38:12;;;;;;;;;;;;;;;;;;5024288;28;1268;-77
2022/10/03 11:40:48;;;;;;;;;;;;;;;;;;5024283;28;1973;-77
2022/10/03 11:43:31;;;;;;;;;;;;;;;;;;5024450;28;847;-76
2022/10/03 11:46:26;;;;;;;;;;;;;;;;;;5023777;28;1282;-76
2022/10/03 11:49:04;;;;;;;;;;;;;;;;;;4970684;28;1368;-76
2022/10/03 11:51:32;;;;;;;;;;;;;;;;;;5023817;28;1098;-76
2022/10/03 11:53:57;;;;;;;;;;;;;;;;;;5024170;28;962;-77
2022/10/03 11:56:43;;;;;;;;;;;;;;;;;;5023688;28;1180;-77
2022/10/03 11:59:27;;;;;;;;;;;;;;;;;;5024209;28;1890;-77
2022/10/03 12:02:01;;;;;;;;;;;;;;;;;;5023903;28;989;-77
2022/10/03 12:04:29;;;;;;;;;;;;;;;;;;5024057;28;819;-77
2022/10/03 12:09:57;;;;;;;;;;;;;;;;;;5024322;28;649;-77
2022/10/03 12:12:29;;;;;;;;;;;;;;;;;;5023689;28;799;-77
2022/10/03 12:14:58;;;;;;;;;;;;;;;;;;5023677;28;1072;-77
2022/10/03 12:17:30;;;;;;;;;;;;;;;;;;5023716;28;1180;-77
2022/10/03 12:20:04;;;;;;;;;;;;;;;;;;5023422;28;1894;-77
2022/10/03 12:22:30;;;;;;;;;;;;;;;;;;5023662;28;811;-77
2022/10/03 12:25:05;;;;;;;;;;;;;;;;;;5023467;28;1037;-77
2022/10/03 12:27:39;;;;;;;;;;;;;;;;;;5023432;28;1361;-76
2022/10/03 12:30:10;;;;;;;;;;;;;;;;;;5023551;28;890;-77
2022/10/03 12:32:36;;;;;;;;;;;;;;;;;;5021850;28;839;-77
2022/10/03 12:35:07;;;;;;;;;;;;;;;;;;5023205;28;985;-77
2022/10/03 12:37:59;;;;;;;;;;;;;;;;;;5053264;22;3713;-75
2022/10/03 12:40:30;;;;;;;;;;;;;;;;;;5058159;28;1894;-75
2022/10/03 12:43:01;;;;;;;;;;;;;;;;;;5062649;28;933;-75
2022/10/03 12:45:35;;;;;;;;;;;;;;;;;;5062237;28;882;-75
2022/10/03 12:48:12;;;;;;;;;;;;;;;;;;5062290;28;1163;-75
2022/10/03 12:50:37;;;;;;;;;;;;;;;;;;5062810;28;885;-75
2022/10/03 12:53:06;;;;;;;;;;;;;;;;;;5062385;28;799;-75
2022/10/03 12:55:36;;;;;;;;;;;;;;;;;;5062099;28;886;-75
2022/10/03 12:58:04;;;;;;;;;;;;;;;;;;5062167;28;1133;-75
2022/10/03 13:00:40;;;;;;;;;;;;;;;;;;5062266;28;1885;-75
2022/10/03 13:03:24;;;;;;;;;;;;;;;;;;5062276;28;1040;-75
2022/10/03 13:05:56;;;;;;;;;;;;;;;;;;5061795;28;870;-75
2022/10/03 13:08:41;;;;;;;;;;;;;;;;;;5062261;28;1132;-75
2022/10/03 13:11:12;;;;;;;;;;;;;;;;;;5062046;28;971;-75
2022/10/03 13:13:41;;;;;;;;;;;;;;;;;;5062087;28;914;-75
2022/10/03 13:16:17;;;;;;;;;;;;;;;;;;5043768;28;1224;-75
2022/10/03 13:18:44;;;;;;;;;;;;;;;;;;5061902;28;1259;-75
2022/10/03 13:21:25;;;;;;;;;;;;;;;;;;5061952;28;1947;-75
2022/10/03 13:23:53;;;;;;;;;;;;;;;;;;5061879;28;830;-75
2022/10/03 13:26:33;;;;;;;;;;;;;;;;;;5061907;28;830;-75
2022/10/03 13:29:16;;;;;;;;;;;;;;;;;;5061866;28;1009;-75
2022/10/03 13:32:01;;;;;;;;;;;;;;;;;;5061908;28;878;-75
2022/10/03 13:34:29;;;;;;;;;;;;;;;;;;5043661;28;927;-75
2022/10/03 13:36:58;;;;;;;;;;;;;;;;;;5061521;28;1196;-75
2022/10/03 13:39:26;;;;;;;;;;;;;;;;;;5061699;28;1902;-75
2022/10/03 13:41:51;;;;;;;;;;;;;;;;;;5061590;28;882;-76
2022/10/03 13:44:21;;;;;;;;;;;;;;;;;;5061718;28;783;-75
2022/10/03 13:46:53;;;;;;;;;;;;;;;;;;5061777;28;1236;-75
2022/10/03 13:49:31;;;;;;;;;;;;;;;;;;5061734;28;854;-75
2022/10/03 13:52:15;;;;;;;;;;;;;;;;;;5061489;28;830;-75
2022/10/03 13:55:00;;;;;;;;;;;;;;;;;;5061156;28;788;-75
2022/10/03 13:57:27;;;;;;;;;;;;;;;;;;5061330;28;1180;-75
2022/10/03 14:00:03;;;;;;;;;;;;;;;;;;5061326;28;1894;-75
2022/10/03 14:02:28;;;;;;;;;;;;;;;;;;5061441;28;842;-75
2022/10/03 14:04:53;;;;;;;;;;;;;;;;;;5061194;28;1016;-75
2022/10/03 14:07:30;;;;;;;;;;;;;;;;;;5061214;28;1246;-75
2022/10/03 14:10:12;;;;;;;;;;;;;;;;;;5043638;28;819;-74
2022/10/03 14:12:43;;;;;;;;;;;;;;;;;;5061040;28;855;-74
2022/10/03 14:15:09;;;;;;;;;;;;;;;;;;5060852;28;822;-75
2022/10/03 14:17:43;;;;;;;;;;;;;;;;;;5061228;28;1149;-75
2022/10/03 14:20:14;;;;;;;;;;;;;;;;;;5060940;28;1902;-75
2022/10/03 14:22:47;;;;;;;;;;;;;;;;;;5061270;28;894;-75
2022/10/03 14:25:18;;;;;;;;;;;;;;;;;;5060770;28;981;-75
2022/10/03 14:27:47;;;;;;;;;;;;;;;;;;5043308;28;1160;-75
2022/10/03 14:30:17;;;;;;;;;;;;;;;;;;5060947;28;926;-75
2022/10/03 14:32:52;;;;;;;;;;;;;;;;;;5060763;28;901;-75
2022/10/03 14:35:23;;;;;;;;;;;;;;;;;;5060513;28;850;-75
2022/10/03 14:38:07;;;;;;;;;;;;;;;;;;5060784;28;1168;-75
2022/10/03 14:40:41;;;;;;;;;;;;;;;;;;5060911;28;1956;-75
2022/10/03 14:43:21;;;;;;;;;;;;;;;;;;5060825;28;806;-76
2022/10/03 14:45:57;;;;;;;;;;;;;;;;;;5060191;28;870;-75
2022/10/03 14:48:22;;;;;;;;;;;;;;;;;;5060697;28;1158;-75
2022/10/03 14:50:49;;;;;;;;;;;;;;;;;;5060657;28;985;-75
2022/10/03 14:53:21;;;;;;;;;;;;;;;;;;5060579;28;866;-75
2022/10/03 14:55:57;;;;;;;;;;;;;;;;;;5060160;28;835;-75
2022/10/03 14:58:28;;;;;;;;;;;;;;;;;;5060496;28;1155;-75
2022/10/03 15:00:54;;;;;;;;;;;;;;;;;;5060338;28;1901;-75
2022/10/03 15:03:26;;;;;;;;;;;;;;;;;;5060078;28;917;-75
2022/10/03 15:06:09;;;;;;;;;;;;;;;;;;5060212;28;1092;-75
2022/10/03 15:08:37;;;;;;;;;;;;;;;;;;5060327;28;1176;-75
2022/10/03 15:11:05;;;;;;;;;;;;;;;;;;5060535;28;807;-75
2022/10/03 15:13:32;;;;;;;;;;;;;;;;;;5060651;28;901;-75
2022/10/03 15:15:59;;;;;;;;;;;;;;;;;;5059983;28;925;-75
2022/10/03 15:18:25;;;;;;;;;;;;;;;;;;5060265;28;1152;-75
2022/10/03 15:20:52;;;;;;;;;;;;;;;;;;5060220;28;1906;-75
2022/10/03 15:23:19;;;;;;;;;;;;;;;;;;5060384;28;875;-75
2022/10/03 15:25:51;;;;;;;;;;;;;;;;;;5059815;28;1024;-75
2022/10/03 15:28:17;;;;;;;;;;;;;;;;;;5060238;28;1326;-75
2022/10/03 15:30:43;;;;;;;;;;;;;;;;;;5059964;28;890;-75
2022/10/03 15:33:28;;;;;;;;;;;;;;;;;;5060020;28;946;-75
2022/10/03 15:35:58;;;;;;;;;;;;;;;;;;5059718;28;826;-75
2022/10/03 15:38:26;;;;;;;;;;;;;;;;;;5059994;28;1263;-75
2022/10/03 15:41:06;;;;;;;;;;;;;;;;;;5059884;28;1964;-75
2022/10/03 15:43:40;;;;;;;;;;;;;;;;;;5059892;28;886;-75
2022/10/03 15:46:11;;;;;;;;;;;;;;;;;;5059421;28;834;-75
2022/10/03 15:48:37;;;;;;;;;;;;;;;;;;5060042;28;1204;-75
2022/10/03 15:51:05;;;;;;;;;;;;;;;;;;5059846;28;936;-75
2022/10/03 15:53:34;;;;;;;;;;;;;;;;;;5060008;28;803;-75
2022/10/03 15:56:14;;;;;;;;;;;;;;;;;;5059505;28;882;-75
2022/10/03 15:58:46;;;;;;;;;;;;;;;;;;5059792;28;1164;-75
2022/10/03 16:01:15;;;;;;;;;;;;;;;;;;5059526;28;1897;-76
2022/10/03 16:03:46;;;;;;;;;;;;;;;;;;5059823;28;1005;-76
2022/10/03 16:06:14;;;;;;;;;;;;;;;;;;5059394;28;756;-76
2022/10/03 16:08:53;;;;;;;;;;;;;;;;;;5059674;28;1172;-76
2022/10/03 16:11:24;;;;;;;;;;;;;;;;;;5059625;28;976;-76
2022/10/03 16:13:52;;;;;;;;;;;;;;;;;;5061961;28;902;-76
2022/10/03 16:16:22;;;;;;;;;;;;;;;;;;5069520;28;720;-77
2022/10/03 16:18:50;;;;;;;;;;;;;;;;;;5073230;28;1377;-77
2022/10/03 16:21:39;;;;;;;;;;;;;;;;;;5063170;28;1902;-76
2022/10/03 16:24:06;;;;;;;;;;;;;;;;;;5052253;28;986;-76
2022/10/03 16:26:41;;;;;;;;;;;;;;;;;;5062401;28;1235;-76
2022/10/03 16:29:14;;;;;;;;;;;;;;;;;;5062917;28;1068;-76
2022/10/03 16:31:47;;;;;;;;;;;;;;;;;;5062742;28;925;-76
2022/10/03 16:34:14;;;;;;;;;;;;;;;;;;5062768;28;1013;-75
2022/10/03 16:36:45;;;;;;;;;;;;;;;;;;5062551;28;1176;-75
2022/10/03 16:39:23;;;;;;;;;;;;;;;;;;5062776;28;1953;-75
2022/10/03 16:41:51;;;;;;;;;;;;;;;;;;5044677;28;973;-75
2022/10/03 16:44:22;;;;;;;;;;;;;;;;;;5062552;28;847;-75
2022/10/03 16:46:48;;;;;;;;;;;;;;;;;;5062498;28;1164;-75
2022/10/03 16:52:17;;;;;;;;;;;;;;;;;;5062760;28;613;-75
2022/10/03 16:54:43;;;;;;;;;;;;;;;;;;5062210;28;819;-75
2022/10/03 16:57:13;;;;;;;;;;;;;;;;;;5062351;28;1176;-75
2022/10/03 16:59:41;;;;;;;;;;;;;;;;;;5062329;28;1890;-75
2022/10/03 17:02:12;;;;;;;;;;;;;;;;;;5062449;28;953;-75
2022/10/03 17:05:00;;;;;;;;;;;;;;;;;;5062078;28;942;-75
2022/10/03 17:07:51;;;;;;;;;;;;;;;;;;5061705;28;1177;-75
2022/10/03 17:10:29;;;;;;;;;;;;;;;;;;5058325;28;1976;-75
2022/10/03 17:12:58;;;;;;;;;;;;;;;;;;5062449;28;925;-76
2022/10/03 17:15:27;;;;;;;;;;;;;;;;;;5061886;28;902;-76
2022/10/03 17:18:00;;;;;;;;;;;;;;;;;;5061909;28;1179;-75
2022/10/03 17:20:36;;;;;;;;;;;;;;;;;;5044281;28;1965;-75
2022/10/03 17:23:06;;;;;;;;;;;;;;;;;;5062204;28;854;-75
2022/10/03 17:25:31;;;;;;;;;;;;;;;;;;5061258;28;898;-75
2022/10/03 17:27:57;;;;;;;;;;;;;;;;;;5061859;28;1262;-75
2022/10/03 17:30:34;;;;;;;;;;;;;;;;;;5061766;28;863;-76
2022/10/03 17:33:01;;;;;;;;;;;;;;;;;;5061822;28;1025;-75
2022/10/03 17:35:38;;;;;;;;;;;;;;;;;;5061760;28;850;-75
2022/10/03 17:38:10;;;;;;;;;;;;;;;;;;5061613;28;1183;-75
2022/10/03 17:40:44;;;;;;;;;;;;;;;;;;5043776;28;1957;-75
2022/10/03 17:43:19;;;;;;;;;;;;;;;;;;5061531;28;811;-75
2022/10/03 17:45:52;;;;;;;;;;;;;;;;;;5060498;28;883;-76
2022/10/03 17:48:18;;;;;;;;;;;;;;;;;;5061785;28;1180;-76
2022/10/03 17:50:53;;;;;;;;;;;;;;;;;;5061393;28;918;-75
2022/10/03 17:53:20;;;;;;;;;;;;;;;;;;5061346;28;838;-75
2022/10/03 17:55:46;;;;;;;;;;;;;;;;;;5061275;28;795;-75
2022/10/03 17:58:16;;;;;;;;;;;;;;;;;;5061212;28;1870;-75
2022/10/03 18:00:44;;;;;;;;;;;;;;;;;;5061337;28;1894;-75
2022/10/03 18:03:20;;;;;;;;;;;;;;;;;;5061454;28;807;-75
2022/10/03 18:05:47;;;;;;;;;;;;;;;;;;5042960;28;1411;-75
2022/10/03 18:08:24;;;;;;;;;;;;;;;;;;5061266;28;1172;-75
2022/10/03 18:10:51;;;;;;;;;;;;;;;;;;5061163;28;989;-75
2022/10/03 18:13:37;;;;;;;;;;;;;;;;;;5061103;28;1009;-75
2022/10/03 18:16:24;;;;;;;;;;;;;;;;;;5060294;28;1229;-75
2022/10/03 18:18:55;;;;;;;;;;;;;;;;;;5061523;28;846;-75
2022/10/03 18:21:31;;;;;;;;;;;;;;;;;;5061203;28;1894;-75